Time;durP1;ratioP1;P1;durP2;ratioP2;P2;SDS_P1;SDS_P2;PMS_P1;PMS_P2;Temp;Humidity;BMP_temperature;BMP_pressure;BME280_temperature;BME280_humidity;BME280_pressure;Samples;Min_cycle;Max_cycle;Signal;HPM_P1;HPM_P2
2024/03/06 00:00:13;;;;;;;26.05;16.13;;;7.40;99.90;;;;;;5029728;28;20565;-50
2024/03/06 00:02:40;;;;;;;26.20;16.25;;;7.40;99.90;;;;;;5029664;28;20527;-51
2024/03/06 00:05:08;;;;;;;27.92;15.90;;;7.40;99.90;;;;;;5027914;28;20110;-51
2024/03/06 00:07:35;;;;;;;25.30;15.68;;;7.40;99.90;;;;;;5026502;28;20440;-52
2024/03/06 00:10:04;;;;;;;30.92;16.50;;;7.40;99.90;;;;;;5027947;28;20045;-48
2024/03/06 00:12:32;;;;;;;27.95;16.35;;;7.30;99.90;;;;;;5030601;28;20045;-46
2024/03/06 00:14:59;;;;;;;27.05;15.98;;;7.30;99.90;;;;;;5027834;28;20413;-52
2024/03/06 00:17:26;;;;;;;28.60;17.25;;;7.40;99.90;;;;;;5029539;28;20044;-46
2024/03/06 00:19:53;;;;;;;25.42;15.55;;;7.40;99.90;;;;;;5024525;28;20057;-49
2024/03/06 00:22:20;;;;;;;27.08;15.77;;;7.40;99.90;;;;;;5027724;28;20068;-53
2024/03/06 00:24:50;;;;;;;27.88;16.98;;;7.40;99.90;;;;;;5010480;28;20041;-50
2024/03/06 00:27:17;;;;;;;28.63;16.85;;;7.40;99.90;;;;;;5008761;28;21965;-52
2024/03/06 00:29:45;;;;;;;29.85;15.93;;;7.40;99.90;;;;;;5026487;28;20041;-57
2024/03/06 00:32:11;;;;;;;28.48;16.33;;;7.40;99.90;;;;;;5026560;28;20402;-48
2024/03/06 00:34:39;;;;;;;28.80;17.42;;;7.40;99.90;;;;;;5026601;28;20037;-48
2024/03/06 00:37:06;;;;;;;29.85;16.90;;;7.40;99.90;;;;;;5026005;28;20429;-45
2024/03/06 00:39:33;;;;;;;32.10;18.02;;;7.40;99.90;;;;;;5027472;28;20493;-50
2024/03/06 00:42:00;;;;;;;29.13;16.80;;;7.30;99.90;;;;;;5026556;28;20331;-46
2024/03/06 00:44:27;;;;;;;28.10;16.42;;;7.40;99.90;;;;;;5025594;28;20049;-56
2024/03/06 00:46:54;;;;;;;27.85;17.20;;;7.40;99.90;;;;;;5024019;28;20049;-48
2024/03/06 00:49:21;;;;;;;27.30;16.27;;;7.40;99.90;;;;;;5026589;28;20489;-48
2024/03/06 00:51:48;;;;;;;27.88;16.52;;;7.40;99.90;;;;;;5027640;28;20183;-47
2024/03/06 00:54:16;;;;;;;29.92;17.20;;;7.40;99.90;;;;;;5021454;28;20046;-49
2024/03/06 00:56:43;;;;;;;32.00;17.58;;;7.40;99.90;;;;;;5026704;28;20083;-49
2024/03/06 00:59:10;;;;;;;30.20;16.63;;;7.30;99.90;;;;;;5027819;28;20058;-52
2024/03/06 01:01:37;;;;;;;26.85;16.15;;;7.40;99.90;;;;;;5026703;28;20132;-48
2024/03/06 01:04:05;;;;;;;28.25;16.50;;;7.40;99.90;;;;;;5025736;28;20053;-48
2024/03/06 01:06:32;;;;;;;30.65;17.08;;;7.40;99.90;;;;;;5024683;28;20048;-52
2024/03/06 01:08:59;;;;;;;29.33;17.70;;;7.40;99.90;;;;;;5026549;28;20053;-48
2024/03/06 01:11:26;;;;;;;28.80;17.15;;;7.30;99.90;;;;;;5024107;28;20124;-45
2024/03/06 01:13:54;;;;;;;30.10;17.50;;;7.30;99.90;;;;;;5011351;28;20053;-53
2024/03/06 01:16:21;;;;;;;31.90;18.50;;;7.30;99.90;;;;;;5025964;28;20508;-51
2024/03/06 01:18:48;;;;;;;33.95;18.65;;;7.20;99.90;;;;;;5023839;28;20054;-51
2024/03/06 01:21:15;;;;;;;29.58;16.65;;;7.20;99.90;;;;;;5021089;28;20114;-50
2024/03/06 01:23:43;;;;;;;31.92;17.73;;;7.20;99.90;;;;;;5025306;28;20195;-48
2024/03/06 01:26:11;;;;;;;29.35;17.48;;;7.20;99.90;;;;;;5005616;28;20084;-49
2024/03/06 01:28:38;;;;;;;32.67;18.33;;;7.20;99.90;;;;;;5023135;28;20128;-50
2024/03/06 01:31:06;;;;;;;30.73;17.80;;;7.10;99.90;;;;;;5023913;28;20497;-52
2024/03/06 01:33:33;;;;;;;33.20;18.27;;;7.10;99.90;;;;;;5024144;28;20072;-51
2024/03/06 01:36:00;;;;;;;29.90;17.52;;;7.10;99.90;;;;;;5020956;28;20079;-49
2024/03/06 01:38:27;;;;;;;32.25;18.35;;;7.10;99.90;;;;;;5026476;28;20049;-55
2024/03/06 01:40:54;;;;;;;29.42;17.52;;;7.10;99.90;;;;;;5022939;28;20084;-48
2024/03/06 01:43:23;;;;;;;31.45;18.05;;;7.00;99.90;;;;;;5025121;28;20054;-49
2024/03/06 01:45:50;;;;;;;32.05;18.02;;;7.10;99.90;;;;;;5024995;28;20553;-48
2024/03/06 01:48:20;;;;;;;32.08;18.35;;;7.10;99.90;;;;;;5024652;28;20041;-50
2024/03/06 01:50:47;;;;;;;30.25;17.90;;;7.10;99.90;;;;;;5025462;28;20041;-43
2024/03/06 01:53:17;;;;;;;32.33;18.45;;;7.10;99.90;;;;;;5024833;28;20055;-47
2024/03/06 01:55:44;;;;;;;32.40;19.35;;;7.10;99.90;;;;;;5026425;28;20036;-48
2024/03/06 01:58:12;;;;;;;30.95;18.38;;;7.20;99.90;;;;;;5021094;28;20059;-50
2024/03/06 02:00:39;;;;;;;32.72;17.60;;;7.10;99.90;;;;;;5021450;28;20448;-46
2024/03/06 02:03:07;;;;;;;32.53;18.38;;;7.10;99.90;;;;;;5019815;28;20124;-45
2024/03/06 02:05:34;;;;;;;32.40;18.90;;;7.10;99.90;;;;;;5024685;28;20099;-50
2024/03/06 02:08:03;;;;;;;30.33;18.02;;;7.20;99.90;;;;;;5023515;28;20049;-51
2024/03/06 02:10:30;;;;;;;32.35;18.10;;;7.20;99.90;;;;;;5026301;28;20124;-49
2024/03/06 02:12:57;;;;;;;32.10;18.08;;;7.20;99.90;;;;;;5028843;28;20422;-45
2024/03/06 02:15:25;;;;;;;33.03;18.95;;;7.20;99.90;;;;;;5024705;28;20049;-49
2024/03/06 02:17:53;;;;;;;31.40;19.25;;;7.20;99.90;;;;;;5022423;28;20160;-50
2024/03/06 02:20:24;;;;;;;40.75;19.50;;;7.10;99.90;;;;;;5027759;28;20115;-52
2024/03/06 02:22:52;;;;;;;34.00;18.88;;;7.20;99.90;;;;;;5027413;28;20637;-49
2024/03/06 02:25:19;;;;;;;29.27;18.45;;;7.10;99.90;;;;;;5027640;28;20120;-48
2024/03/06 02:27:49;;;;;;;38.15;19.15;;;7.10;99.90;;;;;;5022080;28;20078;-48
2024/03/06 02:30:20;;;;;;;33.70;18.20;;;7.10;99.90;;;;;;5025367;28;20061;-47
2024/03/06 02:32:47;;;;;;;34.53;18.48;;;7.10;99.90;;;;;;5026540;28;20046;-46
2024/03/06 02:35:14;;;;;;;35.00;19.17;;;7.10;99.90;;;;;;5024236;28;20045;-49
2024/03/06 02:37:43;;;;;;;35.45;19.48;;;7.00;99.90;;;;;;5022794;28;20065;-50
2024/03/06 02:40:11;;;;;;;33.80;19.90;;;7.00;99.90;;;;;;5023765;28;20045;-50
2024/03/06 02:42:38;;;;;;;35.92;20.77;;;7.00;99.90;;;;;;5025702;28;20049;-47
2024/03/06 02:45:09;;;;;;;40.95;21.35;;;6.90;99.90;;;;;;5022291;28;20107;-49
2024/03/06 02:47:36;;;;;;;36.08;21.42;;;6.90;99.90;;;;;;5023407;28;20061;-48
2024/03/06 02:50:04;;;;;;;35.53;20.08;;;7.00;99.90;;;;;;5026056;28;20041;-52
2024/03/06 02:52:32;;;;;;;34.88;21.63;;;7.00;99.90;;;;;;5025613;28;20048;-51
2024/03/06 02:54:59;;;;;;;39.55;21.42;;;7.00;99.90;;;;;;5023919;28;20144;-49
2024/03/06 02:57:28;;;;;;;38.25;21.98;;;7.00;99.90;;;;;;5025750;28;20056;-50
2024/03/06 02:59:56;;;;;;;38.00;20.40;;;6.90;99.90;;;;;;5022654;28;20059;-46
2024/03/06 03:02:23;;;;;;;37.15;19.83;;;7.00;99.90;;;;;;5008874;28;20389;-46
2024/03/06 03:04:52;;;;;;;39.72;21.58;;;7.00;99.90;;;;;;5021039;28;20052;-52
2024/03/06 03:07:21;;;;;;;34.80;20.63;;;7.00;99.90;;;;;;5025156;28;20056;-46
2024/03/06 03:09:48;;;;;;;38.67;20.83;;;6.90;99.90;;;;;;5027267;28;20055;-50
2024/03/06 03:12:15;;;;;;;35.17;19.13;;;6.90;99.90;;;;;;5028934;28;20048;-53
2024/03/06 03:14:43;;;;;;;38.45;20.95;;;6.90;99.90;;;;;;5025873;28;20053;-52
2024/03/06 03:17:10;;;;;;;39.72;21.10;;;6.90;99.90;;;;;;5022888;28;20136;-53
2024/03/06 03:19:39;;;;;;;38.67;21.50;;;6.80;99.90;;;;;;5021960;28;20073;-44
2024/03/06 03:22:09;;;;;;;39.75;21.20;;;6.80;99.90;;;;;;5023691;28;20056;-43
2024/03/06 03:24:36;;;;;;;41.55;22.83;;;6.70;99.90;;;;;;5024035;28;20421;-53
2024/03/06 03:27:03;;;;;;;40.78;22.05;;;6.70;99.90;;;;;;5020575;28;20045;-50
2024/03/06 03:29:31;;;;;;;41.55;21.25;;;6.70;99.90;;;;;;5024728;28;20121;-51
2024/03/06 03:31:57;;;;;;;39.88;21.33;;;6.70;99.90;;;;;;5021808;28;20511;-46
2024/03/06 03:34:25;;;;;;;45.03;23.33;;;6.70;99.90;;;;;;5023039;28;20153;-49
2024/03/06 03:36:52;;;;;;;44.45;22.63;;;6.70;99.90;;;;;;5023050;28;20200;-50
2024/03/06 03:39:21;;;;;;;41.17;23.10;;;6.70;99.90;;;;;;5026336;28;20046;-47
2024/03/06 03:41:49;;;;;;;42.38;21.48;;;6.70;99.90;;;;;;5025032;28;20058;-52
2024/03/06 03:44:18;;;;;;;42.65;22.40;;;6.70;99.90;;;;;;5024411;28;20044;-47
2024/03/06 03:46:45;;;;;;;40.83;22.17;;;6.70;99.90;;;;;;5028397;28;20057;-48
2024/03/06 03:49:12;;;;;;;43.40;23.05;;;6.70;99.90;;;;;;5026827;28;20069;-56
2024/03/06 03:51:40;;;;;;;43.63;23.27;;;6.70;99.90;;;;;;5022649;28;20091;-48
2024/03/06 03:54:07;;;;;;;39.63;21.75;;;6.80;99.90;;;;;;5027988;28;20300;-46
2024/03/06 03:56:35;;;;;;;44.67;24.08;;;6.80;99.90;;;;;;5026447;28;20482;-49
2024/03/06 03:59:02;;;;;;;43.22;22.65;;;6.80;99.90;;;;;;5028659;28;20053;-49
2024/03/06 04:01:30;;;;;;;45.10;23.23;;;6.90;99.90;;;;;;5026583;28;20045;-48
2024/03/06 04:03:56;;;;;;;43.35;23.67;;;6.90;99.90;;;;;;5027020;28;20049;-51
2024/03/06 04:06:23;;;;;;;44.13;23.48;;;6.90;99.90;;;;;;5026654;28;20136;-48
2024/03/06 04:08:50;;;;;;;43.45;23.42;;;7.00;99.90;;;;;;5028857;28;20046;-49
2024/03/06 04:11:17;;;;;;;47.92;24.60;;;7.00;99.90;;;;;;5008851;28;20925;-55
2024/03/06 04:13:46;;;;;;;43.55;23.15;;;7.00;99.90;;;;;;5030064;28;20158;-48
2024/03/06 04:16:17;;;;;;;46.95;23.73;;;7.00;99.90;;;;;;5025901;28;20041;-50
2024/03/06 04:18:46;;;;;;;55.40;26.73;;;7.00;99.90;;;;;;5026152;28;20522;-47
2024/03/06 04:21:14;;;;;;;47.55;25.23;;;7.00;99.90;;;;;;5026247;28;20185;-50
2024/03/06 04:23:43;;;;;;;46.00;23.85;;;7.00;99.90;;;;;;5025634;28;20111;-53
2024/03/06 04:26:10;;;;;;;47.92;24.42;;;7.00;99.90;;;;;;5026368;28;20045;-49
2024/03/06 04:28:37;;;;;;;48.70;25.73;;;7.00;99.90;;;;;;5022835;28;20048;-51
2024/03/06 04:31:05;;;;;;;44.70;23.50;;;7.00;99.90;;;;;;5029396;28;20033;-51
2024/03/06 04:33:32;;;;;;;47.33;25.92;;;7.00;99.90;;;;;;5028897;28;20530;-48
2024/03/06 04:36:07;;;;;;;48.95;23.85;;;6.90;99.90;;;;;;5028885;28;20068;-46
2024/03/06 04:38:34;;;;;;;48.50;25.60;;;6.90;99.90;;;;;;5013934;28;20120;-48
2024/03/06 04:41:01;;;;;;;50.45;25.00;;;6.90;99.90;;;;;;5024959;28;20470;-46
2024/03/06 04:43:28;;;;;;;48.95;26.42;;;6.90;99.90;;;;;;5028259;28;20045;-52
2024/03/06 04:45:54;;;;;;;50.00;24.75;;;6.90;99.90;;;;;;5022494;28;20046;-52
2024/03/06 04:48:21;;;;;;;52.15;25.90;;;6.90;99.90;;;;;;5027321;28;20041;-50
2024/03/06 04:50:49;;;;;;;49.83;27.15;;;6.90;99.90;;;;;;5025252;28;20132;-52
2024/03/06 04:53:16;;;;;;;50.63;25.23;;;6.90;99.90;;;;;;5026475;28;20099;-52
2024/03/06 04:55:43;;;;;;;55.03;26.20;;;6.80;99.90;;;;;;5026924;28;20515;-48
2024/03/06 04:58:10;;;;;;;45.97;25.60;;;6.80;99.90;;;;;;5026536;28;20049;-49
2024/03/06 05:00:37;;;;;;;47.65;25.27;;;6.80;99.90;;;;;;5025541;28;20056;-50
2024/03/06 05:03:04;;;;;;;54.38;26.65;;;6.90;99.90;;;;;;5026091;28;20431;-47
2024/03/06 05:05:49;;;;;;;48.72;24.83;;;6.90;99.90;;;;;;5026280;28;20045;-53
2024/03/06 05:08:33;;;;;;;51.53;26.52;;;6.90;99.90;;;;;;5029201;28;20029;-48
2024/03/06 05:11:18;;;;;;;48.75;25.30;;;6.90;99.90;;;;;;5024846;28;20021;-50
2024/03/06 05:14:02;;;;;;;54.50;26.95;;;7.00;99.90;;;;;;5023483;28;20034;-52
2024/03/06 05:16:47;;;;;;;50.30;26.10;;;7.00;99.90;;;;;;5028017;28;20029;-49
2024/03/06 05:19:32;;;;;;;51.00;25.67;;;7.00;99.90;;;;;;5025352;28;20029;-51
2024/03/06 05:22:16;;;;;;;51.95;26.52;;;7.00;99.90;;;;;;5026404;28;20466;-50
2024/03/06 05:25:01;;;;;;;50.10;26.75;;;6.90;99.90;;;;;;5022378;28;20041;-48
2024/03/06 05:27:45;;;;;;;52.33;27.23;;;6.90;99.90;;;;;;5021131;28;20152;-54
2024/03/06 05:30:30;;;;;;;57.95;27.60;;;6.90;99.90;;;;;;5024924;28;20109;-52
2024/03/06 05:33:15;;;;;;;54.63;26.83;;;6.90;99.90;;;;;;5026824;28;20067;-48
2024/03/06 05:35:59;;;;;;;54.45;27.85;;;6.80;99.90;;;;;;5025681;28;20065;-50
2024/03/06 05:38:45;;;;;;;60.55;29.05;;;6.90;99.90;;;;;;5027045;28;20032;-45
2024/03/06 05:41:29;;;;;;;59.47;28.48;;;6.90;99.90;;;;;;5023093;28;20030;-46
2024/03/06 05:44:13;;;;;;;50.22;27.58;;;6.90;99.90;;;;;;5026251;28;20112;-53
2024/03/06 05:47:02;;;;;;;57.60;28.20;;;6.90;99.90;;;;;;5023664;28;20451;-48
2024/03/06 05:49:47;;;;;;;57.85;28.48;;;6.90;99.90;;;;;;5023956;28;20037;-46
2024/03/06 05:52:32;;;;;;;51.78;27.35;;;6.90;99.90;;;;;;5026493;28;20529;-52
2024/03/06 05:55:17;;;;;;;60.88;29.77;;;6.90;99.90;;;;;;5025094;28;20063;-48
2024/03/06 05:58:02;;;;;;;55.65;27.27;;;6.90;99.90;;;;;;5021650;28;20036;-52
2024/03/06 06:00:35;;;;;;;59.40;29.13;;;6.90;99.90;;;;;;5023351;28;20405;-51
2024/03/06 06:03:02;;;;;;;59.22;28.45;;;7.00;99.90;;;;;;5020835;28;20037;-48
2024/03/06 06:05:29;;;;;;;58.90;29.15;;;7.00;99.90;;;;;;5024612;28;20029;-47
2024/03/06 06:07:56;;;;;;;59.00;28.05;;;7.00;99.90;;;;;;5025452;28;20053;-47
2024/03/06 06:10:24;;;;;;;56.20;29.33;;;7.00;99.90;;;;;;5025397;28;20126;-49
2024/03/06 06:12:52;;;;;;;53.80;28.02;;;7.10;99.90;;;;;;5028754;28;20053;-52
2024/03/06 06:15:20;;;;;;;55.80;27.85;;;7.10;99.90;;;;;;5023606;28;20174;-55
2024/03/06 06:17:47;;;;;;;59.97;29.42;;;7.10;99.90;;;;;;5024887;28;20127;-49
2024/03/06 06:20:15;;;;;;;55.88;27.70;;;7.20;99.90;;;;;;5028543;28;20622;-51
2024/03/06 06:22:44;;;;;;;57.05;27.27;;;7.20;99.90;;;;;;5025239;28;20115;-50
2024/03/06 06:25:11;;;;;;;60.78;29.33;;;7.30;99.90;;;;;;5022878;28;20532;-47
2024/03/06 06:27:38;;;;;;;56.90;27.65;;;7.20;99.90;;;;;;5022943;28;20743;-48
2024/03/06 06:30:11;;;;;;;59.53;28.95;;;7.20;99.90;;;;;;5026155;28;20402;-51
2024/03/06 06:32:40;;;;;;;59.45;28.33;;;7.30;99.90;;;;;;5023384;28;20125;-48
2024/03/06 06:35:09;;;;;;;59.72;29.70;;;7.30;99.90;;;;;;5028337;28;20564;-50
2024/03/06 06:37:36;;;;;;;59.92;28.02;;;7.30;99.90;;;;;;5025664;28;20030;-47
2024/03/06 06:40:06;;;;;;;53.83;25.90;;;7.40;99.90;;;;;;5028039;28;20053;-50
2024/03/06 06:42:36;;;;;;;59.20;29.20;;;7.50;99.90;;;;;;5023855;28;20142;-51
2024/03/06 06:45:06;;;;;;;62.80;28.67;;;7.50;99.90;;;;;;5024730;28;20108;-47
2024/03/06 06:47:33;;;;;;;52.90;26.05;;;7.50;99.90;;;;;;5025497;28;20478;-47
2024/03/06 06:50:05;;;;;;;58.17;29.13;;;7.50;99.90;;;;;;5025776;28;20374;-45
2024/03/06 06:52:33;;;;;;;58.33;29.67;;;7.60;99.90;;;;;;5025524;28;20037;-49
2024/03/06 06:55:02;;;;;;;57.08;28.00;;;7.60;99.90;;;;;;5021505;28;20041;-49
2024/03/06 06:57:30;;;;;;;55.42;27.17;;;7.60;99.90;;;;;;5024756;28;20033;-46
2024/03/06 06:59:57;;;;;;;57.67;28.83;;;7.70;99.90;;;;;;5025054;28;20046;-50
2024/03/06 07:02:23;;;;;;;57.13;26.95;;;7.80;99.90;;;;;;5025988;28;20049;-51
2024/03/06 07:04:51;;;;;;;55.08;27.48;;;7.90;99.90;;;;;;5024893;28;20088;-49
2024/03/06 07:07:18;;;;;;;53.97;26.00;;;8.00;99.90;;;;;;5023082;28;20045;-48
2024/03/06 07:09:45;;;;;;;59.78;28.00;;;8.00;99.90;;;;;;5024240;28;20080;-51
2024/03/06 07:12:12;;;;;;;59.28;28.50;;;8.00;99.90;;;;;;5029050;28;20053;-50
2024/03/06 07:14:39;;;;;;;52.10;26.02;;;8.00;99.90;;;;;;5026384;28;20041;-49
2024/03/06 07:17:06;;;;;;;53.70;25.52;;;8.10;99.90;;;;;;5031482;28;20072;-49
2024/03/06 07:19:33;;;;;;;56.67;26.85;;;8.20;99.90;;;;;;5029230;28;20041;-55
2024/03/06 07:22:00;;;;;;;54.78;28.02;;;8.20;99.90;;;;;;5031012;28;20050;-47
2024/03/06 07:24:27;;;;;;;52.33;26.27;;;8.20;99.90;;;;;;5029879;28;20049;-49
2024/03/06 07:26:54;;;;;;;53.90;25.70;;;8.30;99.90;;;;;;5027414;28;20045;-48
2024/03/06 07:29:21;;;;;;;48.25;26.33;;;8.30;99.90;;;;;;5030798;28;20038;-52
2024/03/06 07:31:48;;;;;;;53.58;27.30;;;8.30;99.90;;;;;;5030179;28;20538;-48
2024/03/06 07:34:15;;;;;;;53.50;27.33;;;8.40;99.90;;;;;;5030682;28;20064;-44
2024/03/06 07:36:42;;;;;;;47.78;24.33;;;8.40;99.90;;;;;;5030268;28;20037;-46
2024/03/06 07:39:09;;;;;;;50.25;26.88;;;8.40;99.90;;;;;;5030049;28;20140;-45
2024/03/06 07:41:36;;;;;;;50.45;26.42;;;8.40;99.90;;;;;;5030906;28;20409;-47
2024/03/06 07:44:03;;;;;;;52.03;26.30;;;8.50;99.90;;;;;;5030730;28;20498;-45
2024/03/06 07:46:30;;;;;;;49.95;26.17;;;8.50;99.90;;;;;;5030204;28;20041;-46
2024/03/06 07:48:57;;;;;;;51.72;26.67;;;8.40;99.90;;;;;;5026593;28;20064;-46
2024/03/06 07:51:24;;;;;;;49.80;25.17;;;8.50;99.90;;;;;;5029564;28;20041;-49
2024/03/06 07:53:52;;;;;;;54.03;26.90;;;8.50;99.90;;;;;;5030585;28;20045;-46
2024/03/06 07:56:19;;;;;;;62.78;29.25;;;8.50;99.90;;;;;;5030354;28;20037;-48
2024/03/06 07:58:46;;;;;;;50.83;25.23;;;8.60;99.90;;;;;;5031133;28;20072;-52
2024/03/06 08:01:13;;;;;;;42.55;22.25;;;8.60;99.90;;;;;;5031330;28;20073;-52
2024/03/06 08:03:43;;;;;;;43.20;22.02;;;8.60;99.90;;;;;;5031335;28;20108;-48
2024/03/06 08:06:10;;;;;;;41.15;21.65;;;8.80;99.90;;;;;;5013516;28;20050;-47
2024/03/06 08:08:40;;;;;;;42.15;22.58;;;9.10;99.90;;;;;;5030798;28;20069;-51
2024/03/06 08:11:10;;;;;;;37.83;20.98;;;9.30;99.90;;;;;;5029241;28;20042;-45
2024/03/06 08:13:37;;;;;;;42.42;22.55;;;9.60;99.90;;;;;;5032920;28;20547;-46
2024/03/06 08:16:08;;;;;;;37.97;21.30;;;9.80;99.90;;;;;;5030478;28;20107;-52
2024/03/06 08:18:36;;;;;;;41.08;22.27;;;9.90;99.90;;;;;;5028537;28;20077;-49
2024/03/06 08:21:05;;;;;;;38.53;21.65;;;10.00;99.90;;;;;;5029147;28;20381;-49
2024/03/06 08:23:33;;;;;;;38.38;20.98;;;10.00;99.90;;;;;;5029156;28;20060;-49
2024/03/06 08:26:00;;;;;;;34.72;20.17;;;10.10;99.90;;;;;;5027226;28;20045;-43
2024/03/06 08:28:27;;;;;;;36.42;19.55;;;10.30;99.90;;;;;;5025781;28;20135;-50
2024/03/06 08:30:54;;;;;;;37.30;19.83;;;10.30;99.90;;;;;;5029047;28;20306;-47
2024/03/06 08:33:22;;;;;;;37.03;21.15;;;10.30;99.90;;;;;;5028234;28;20037;-53
2024/03/06 08:35:49;;;;;;;33.90;19.02;;;10.30;99.90;;;;;;5028043;28;20065;-48
2024/03/06 08:38:17;;;;;;;38.15;20.77;;;10.30;99.90;;;;;;5028285;28;20132;-48
2024/03/06 08:40:45;;;;;;;33.35;19.15;;;10.30;99.90;;;;;;5027160;28;20045;-44
2024/03/06 08:43:12;;;;;;;38.85;20.45;;;10.30;99.90;;;;;;5029376;28;20053;-47
2024/03/06 08:45:39;;;;;;;40.40;21.45;;;10.20;99.90;;;;;;5027999;28;20073;-49
2024/03/06 08:48:07;;;;;;;49.67;19.88;;;10.20;99.90;;;;;;5027104;28;20054;-50
2024/03/06 08:50:34;;;;;;;39.50;23.80;;;10.10;99.90;;;;;;5027443;28;20077;-49
2024/03/06 08:53:04;;;;;;;40.85;22.52;;;10.00;99.90;;;;;;5029302;28;20033;-47
2024/03/06 08:55:31;;;;;;;36.70;18.85;;;10.10;99.90;;;;;;5027402;28;20095;-47
2024/03/06 08:57:58;;;;;;;33.65;18.33;;;10.10;99.90;;;;;;5025925;28;20511;-49
2024/03/06 09:00:26;;;;;;;31.40;18.45;;;10.10;99.90;;;;;;5025500;28;20777;-46
2024/03/06 09:02:53;;;;;;;32.00;18.10;;;10.10;99.90;;;;;;5027187;28;20049;-51
2024/03/06 09:05:21;;;;;;;34.83;18.40;;;10.00;99.90;;;;;;5007394;28;20044;-52
2024/03/06 09:07:48;;;;;;;36.03;20.20;;;9.90;99.90;;;;;;5026547;28;20053;-51
2024/03/06 09:10:15;;;;;;;30.90;17.08;;;9.90;99.90;;;;;;5027320;28;20049;-51
2024/03/06 09:12:42;;;;;;;34.92;18.60;;;9.80;99.90;;;;;;5032579;28;20042;-49
2024/03/06 09:15:11;;;;;;;30.67;17.77;;;9.80;99.90;;;;;;5026566;28;20083;-46
2024/03/06 09:17:38;;;;;;;30.83;17.40;;;9.90;99.90;;;;;;5027461;28;20132;-52
2024/03/06 09:20:12;;;;;;;31.92;18.52;;;9.90;99.90;;;;;;5024658;28;20139;-46
2024/03/06 09:22:41;;;;;;;33.38;17.85;;;9.90;99.90;;;;;;5026390;28;20105;-49
2024/03/06 09:25:09;;;;;;;32.28;17.92;;;10.00;99.90;;;;;;5026688;28;20080;-50
2024/03/06 09:27:37;;;;;;;31.60;17.52;;;10.20;99.90;;;;;;5021305;28;20084;-51
2024/03/06 09:30:05;;;;;;;30.27;17.25;;;10.30;99.90;;;;;;5023295;28;20041;-51
2024/03/06 09:32:32;;;;;;;31.05;16.90;;;10.50;99.90;;;;;;5024540;28;20037;-47
2024/03/06 09:34:59;;;;;;;31.08;17.42;;;10.70;99.90;;;;;;5025879;28;20091;-54
2024/03/06 09:37:27;;;;;;;29.70;17.33;;;10.80;99.90;;;;;;5024638;28;20041;-49
2024/03/06 09:39:54;;;;;;;30.00;16.30;;;11.10;99.90;;;;;;5026275;28;20143;-51
2024/03/06 09:42:23;;;;;;;28.42;16.40;;;11.20;99.90;;;;;;5025956;28;20417;-50
2024/03/06 09:44:50;;;;;;;32.42;18.25;;;11.40;99.90;;;;;;5026872;28;20115;-48
2024/03/06 09:47:23;;;;;;;28.90;17.33;;;11.50;99.90;;;;;;5025120;28;20049;-50
2024/03/06 09:49:55;;;;;;;32.53;18.48;;;11.60;99.90;;;;;;5026272;28;20128;-47
2024/03/06 09:52:25;;;;;;;34.72;17.92;;;11.80;99.90;;;;;;5021938;28;20119;-51
2024/03/06 09:54:55;;;;;;;33.03;17.83;;;11.80;99.90;;;;;;5025961;28;20069;-44
2024/03/06 09:57:22;;;;;;;29.50;16.95;;;11.90;99.90;;;;;;5027240;28;20038;-47
2024/03/06 09:59:49;;;;;;;32.42;19.30;;;12.20;99.90;;;;;;5008715;28;20045;-47
2024/03/06 10:02:28;;;;;;;30.35;19.17;;;12.40;99.90;;;;;;5026941;28;20041;-50
2024/03/06 10:04:55;;;;;;;34.13;17.00;;;12.50;99.90;;;;;;5025168;28;20492;-49
2024/03/06 10:07:22;;;;;;;27.85;17.05;;;12.70;99.90;;;;;;5025289;28;20041;-51
2024/03/06 10:09:49;;;;;;;28.40;17.83;;;12.70;99.90;;;;;;5024856;28;20081;-51
2024/03/06 10:12:18;;;;;;;34.85;20.02;;;12.80;99.90;;;;;;5029698;28;20033;-50
2024/03/06 10:14:52;;;;;;;33.50;18.95;;;12.60;99.90;;;;;;5027004;28;20045;-49
2024/03/06 10:17:23;;;;;;;31.45;18.15;;;12.50;99.90;;;;;;5026647;28;20517;-49
2024/03/06 10:19:51;;;;;;;33.92;19.35;;;12.40;99.90;;;;;;5022918;28;20045;-46
2024/03/06 10:22:20;;;;;;;30.98;17.70;;;12.40;99.90;;;;;;5024605;28;20055;-48
2024/03/06 10:24:47;;;;;;;30.85;18.23;;;12.30;99.90;;;;;;5023665;28;20429;-55
2024/03/06 10:27:19;;;;;;;32.20;18.38;;;12.30;99.90;;;;;;5021925;28;20471;-50
2024/03/06 10:29:46;;;;;;;31.02;17.73;;;12.30;99.90;;;;;;5026011;28;20053;-46
2024/03/06 10:32:18;;;;;;;41.83;20.40;;;12.20;99.90;;;;;;5024840;28;20044;-48
2024/03/06 10:34:46;;;;;;;32.22;18.48;;;12.30;99.90;;;;;;5021098;28;20046;-47
2024/03/06 10:37:13;;;;;;;32.88;18.92;;;12.40;99.90;;;;;;5025423;28;20126;-56
2024/03/06 10:39:44;;;;;;;29.52;17.23;;;12.50;99.90;;;;;;5025280;28;20614;-51
2024/03/06 10:42:13;;;;;;;33.63;18.60;;;12.80;99.90;;;;;;5022776;28;20550;-50
2024/03/06 10:44:51;;;;;;;30.13;17.30;;;12.90;99.90;;;;;;5022985;28;20047;-49
2024/03/06 10:47:19;;;;;;;31.00;19.08;;;13.10;99.90;;;;;;5024341;28;20964;-47
2024/03/06 10:49:47;;;;;;;31.30;18.38;;;13.10;99.90;;;;;;5026238;28;20041;-46
2024/03/06 10:52:17;;;;;;;34.38;18.52;;;13.10;99.90;;;;;;5029298;28;20047;-49
2024/03/06 10:54:46;;;;;;;30.75;17.92;;;13.00;99.90;;;;;;5033622;28;20042;-50
2024/03/06 10:57:14;;;;;;;32.75;19.40;;;13.00;99.90;;;;;;5029297;28;20164;-50
2024/03/06 10:59:42;;;;;;;30.90;18.77;;;12.90;99.90;;;;;;5030297;28;20053;-51
2024/03/06 11:02:12;;;;;;;32.35;19.13;;;12.90;99.90;;;;;;5030044;28;20057;-52
2024/03/06 11:04:40;;;;;;;32.08;18.65;;;12.90;99.90;;;;;;5028034;28;20520;-48
2024/03/06 11:07:08;;;;;;;31.83;18.98;;;13.00;99.90;;;;;;5026072;28;20499;-51
2024/03/06 11:09:40;;;;;;;29.45;16.92;;;13.10;99.90;;;;;;5028852;28;20064;-48
2024/03/06 11:12:07;;;;;;;27.95;17.50;;;13.10;99.90;;;;;;5033779;28;20118;-52
2024/03/06 11:14:38;;;;;;;28.73;17.10;;;13.00;99.90;;;;;;5030722;28;20061;-50
2024/03/06 11:17:09;;;;;;;27.70;16.85;;;13.00;99.90;;;;;;5028856;28;20098;-49
2024/03/06 11:20:05;;;;;;;23.05;15.20;;;12.90;99.90;;;;;;5030118;28;20126;-50
2024/03/06 11:22:58;;;;;;;26.75;15.90;;;12.90;99.90;;;;;;5027525;28;20057;-51
2024/03/06 11:25:47;;;;;;;26.48;16.23;;;12.90;99.90;;;;;;5027356;28;20050;-51
2024/03/06 11:28:27;;;;;;;32.72;17.98;;;12.90;99.90;;;;;;5027058;28;20437;-52
2024/03/06 11:30:55;;;;;;;26.90;16.00;;;12.90;99.90;;;;;;5026006;28;20218;-51
2024/03/06 11:33:23;;;;;;;25.33;15.77;;;12.90;99.90;;;;;;5025454;28;20045;-50
2024/03/06 11:36:16;;;;;;;27.40;15.85;;;12.80;99.90;;;;;;5029507;28;20045;-49
2024/03/06 11:39:07;;;;;;;21.98;14.93;;;12.80;99.90;;;;;;5027204;28;20080;-47
2024/03/06 11:41:43;;;;;;;27.20;16.27;;;12.70;99.90;;;;;;5020668;28;20038;-52
2024/03/06 11:44:21;;;;;;;24.95;16.35;;;12.60;99.90;;;;;;5028278;28;20044;-51
2024/03/06 11:46:57;;;;;;;23.80;14.80;;;12.50;99.90;;;;;;5029442;28;20061;-48
2024/03/06 11:49:27;;;;;;;32.03;19.27;;;12.60;99.90;;;;;;5023637;28;20103;-49
2024/03/06 11:51:55;;;;;;;27.92;16.27;;;12.60;99.90;;;;;;5027815;28;20042;-47
2024/03/06 11:54:26;;;;;;;26.42;16.38;;;12.50;99.90;;;;;;5027879;28;20041;-50
2024/03/06 11:56:56;;;;;;;26.08;16.05;;;12.50;99.90;;;;;;5028215;28;20414;-49
2024/03/06 11:59:27;;;;;;;32.35;18.02;;;12.50;99.90;;;;;;5028314;28;20053;-47
2024/03/06 12:01:56;;;;;;;28.97;16.73;;;12.50;99.90;;;;;;5027034;28;20041;-47
2024/03/06 12:04:24;;;;;;;26.35;15.93;;;12.30;99.90;;;;;;5028847;28;20053;-53
2024/03/06 12:06:51;;;;;;;28.83;17.33;;;12.30;99.90;;;;;;5027514;28;20053;-48
2024/03/06 12:09:18;;;;;;;27.05;16.88;;;12.30;99.90;;;;;;5027280;28;20136;-50
2024/03/06 12:11:45;;;;;;;29.55;17.15;;;12.30;99.90;;;;;;5030107;28;20375;-47
2024/03/06 12:14:19;;;;;;;27.55;17.20;;;12.30;99.90;;;;;;5030034;28;20545;-48
2024/03/06 12:16:56;;;;;;;25.70;16.77;;;12.30;99.90;;;;;;5027641;28;20060;-50
2024/03/06 12:19:25;;;;;;;26.92;16.48;;;12.30;99.90;;;;;;5023712;28;20046;-44
2024/03/06 12:21:53;;;;;;;25.60;16.00;;;12.40;99.90;;;;;;5024880;28;20157;-52
2024/03/06 12:24:20;;;;;;;24.58;15.93;;;12.50;99.90;;;;;;5026093;28;20116;-47
2024/03/06 12:27:01;;;;;;;24.02;15.32;;;12.60;99.90;;;;;;5025311;28;20048;-50
2024/03/06 12:29:32;;;;;;;24.02;15.45;;;12.50;99.90;;;;;;5027059;28;20185;-45
2024/03/06 12:32:00;;;;;;;28.02;15.57;;;12.60;99.90;;;;;;5022961;28;20064;-49
2024/03/06 12:34:27;;;;;;;22.70;14.93;;;12.60;99.90;;;;;;5025922;28;20537;-47
2024/03/06 12:36:54;;;;;;;23.33;15.07;;;12.50;99.90;;;;;;5026738;28;20065;-44
2024/03/06 12:39:22;;;;;;;26.88;15.48;;;12.60;99.90;;;;;;5027647;28;20048;-46
2024/03/06 12:41:50;;;;;;;23.10;15.23;;;12.60;99.90;;;;;;5024804;28;20053;-51
2024/03/06 12:44:19;;;;;;;24.95;15.95;;;12.50;99.90;;;;;;5024512;28;20050;-49